TFFR/PTP METAR and TAF weather

Enter ICAO airport designator
Station Type Date Time Source
TFFR METAR 2018/12/10 01:30 UTC NOAA

TFFR 100130Z AUTO 09007KT CAVOK 24/21 Q1018 TEMPO 10015G25KT 4000 SHRA BKN018TCU


Station Type Date Time Source
TFFR Decoded METAR 2018/12/10 01:30 UTC NOAA

Le Raizet, Guadeloupe, Guadeloupe (TFFR) 16-16N 061-31W 11M
Dec 09, 2018 - 08:30 PM EST / 2018.12.10 0130 UTC
Wind: from the E (090 degrees) at 8 MPH (7 KT):0
Visibility: greater than 7 mile(s):0
Weather: Towering cumulus clouds observed
Temperature: 75 F (24 C)
Dew Point: 69 F (21 C)
Relative Humidity: 83%
Pressure (altimeter): 30.06 in. Hg (1018 hPa)
ob: TFFR 100130Z AUTO 09007KT CAVOK 24/21 Q1018 TEMPO 10015G25KT 4000 SHRA BKN018TCU
cycle: 1

Station Type Date Time Source
TFFR TAF 2018/12/09 18:18 UTC NOAA

TAF TFFR 091700Z 0918/1018 09014KT 9999 SCT030 PROB30
TEMPO 0918/1012 10015G25KT 4000 SHRA BKN018TCU


Example: see airport list